Terminal Aerodrome Forecast
Issued by NWS

Home | Current Version | Previous Version | Text Only | Print | Product List | Glossary On
Versions: 1 2 3 4 5 6 7 8 9 10 11 12 13 14
000
FTUS44 KLZK 261140
TAFPBF
TAF
KPBF 261140Z 2612/2712 35005KT P6SM VCSH OVC120
     FM261400 03006KT P6SM BKN120
     FM261700 09008KT P6SM BKN120
     FM262100 14006KT P6SM SCT120
     FM270300 VRB02KT P6SM SCT120=

USA.gov is the U.S. government's official web portal to all federal, state and local government web resources and services.